createdAt,value
2022-10-16T00:01:37.150Z,13.53
2022-10-16T00:04:05.260Z,13.45
2022-10-16T00:06:34.618Z,13.51
2022-10-16T00:09:02.324Z,13.47
2022-10-16T00:11:34.182Z,13.47
2022-10-16T00:14:03.947Z,13.51
2022-10-16T00:16:32.091Z,13.48
2022-10-16T00:19:01.663Z,13.55
2022-10-16T00:21:31.433Z,13.50
2022-10-16T00:24:03.135Z,13.58
2022-10-16T00:26:33.091Z,13.58
2022-10-16T00:29:00.965Z,13.58
2022-10-16T00:31:28.716Z,13.72
2022-10-16T00:33:56.491Z,13.65
2022-10-16T00:36:26.338Z,13.62
2022-10-16T00:38:55.620Z,13.58
2022-10-16T00:41:26.777Z,13.61
2022-10-16T00:43:56.122Z,13.61
2022-10-16T00:46:27.670Z,13.64
2022-10-16T00:49:01.677Z,13.66
2022-10-16T00:51:37.993Z,13.71
2022-10-16T00:54:10.206Z,13.74
2022-10-16T00:56:39.569Z,13.61
2022-10-16T00:59:13.909Z,13.73
2022-10-16T01:01:41.875Z,13.69
2022-10-16T01:04:09.608Z,13.71
2022-10-16T01:06:45.158Z,13.77
2022-10-16T01:09:19.704Z,13.77
2022-10-16T01:12:00.520Z,13.71
2022-10-16T01:14:34.080Z,13.68
2022-10-16T01:17:08.599Z,13.73
2022-10-16T01:19:52.370Z,13.71
2022-10-16T01:22:22.276Z,13.69
2022-10-16T01:24:52.178Z,13.72
2022-10-16T01:27:25.099Z,13.73
2022-10-16T01:29:57.735Z,13.69
2022-10-16T01:32:32.856Z,13.77
2022-10-16T01:35:06.139Z,13.81
2022-10-16T01:37:39.523Z,13.74
2022-10-16T01:40:12.834Z,13.74
2022-10-16T01:42:45.231Z,13.70
2022-10-16T01:45:18.951Z,13.82
2022-10-16T01:47:48.771Z,13.55
2022-10-16T01:50:18.176Z,13.79
2022-10-16T01:52:49.528Z,13.76
2022-10-16T01:55:31.311Z,13.73
2022-10-16T01:58:03.454Z,13.63
2022-10-16T02:00:31.464Z,13.63
2022-10-16T02:03:03.578Z,13.64
2022-10-16T02:05:33.341Z,13.68
2022-10-16T02:08:04.671Z,13.53
2022-10-16T02:10:34.341Z,13.52
2022-10-16T02:13:08.198Z,13.45
2022-10-16T02:15:35.960Z,13.36
2022-10-16T02:18:04.800Z,13.36
2022-10-16T02:20:38.672Z,13.41
2022-10-16T02:23:10.975Z,13.28
2022-10-16T02:25:45.529Z,13.29
2022-10-16T02:28:20.029Z,13.29
2022-10-16T02:30:53.131Z,13.30
2022-10-16T02:33:23.253Z,13.30
2022-10-16T02:35:52.798Z,13.30
2022-10-16T02:38:22.408Z,13.36
2022-10-16T02:40:50.633Z,13.35
2022-10-16T02:43:20.592Z,13.38
2022-10-16T02:45:51.166Z,13.43
2022-10-16T02:48:18.900Z,13.42
2022-10-16T02:50:46.575Z,13.20
2022-10-16T02:53:14.334Z,13.06
2022-10-16T02:55:42.127Z,13.05
2022-10-16T02:58:09.887Z,13.04
2022-10-16T03:00:38.951Z,12.99
2022-10-16T03:03:06.755Z,13.05
2022-10-16T03:05:34.438Z,13.05
2022-10-16T03:08:02.264Z,13.09
2022-10-16T03:10:30.097Z,13.09
2022-10-16T03:12:57.779Z,13.11
2022-10-16T03:15:25.607Z,13.08
2022-10-16T03:17:54.671Z,13.04
2022-10-16T03:20:22.629Z,12.95
2022-10-16T03:22:50.363Z,12.93
2022-10-16T03:25:19.831Z,12.94
2022-10-16T03:27:47.590Z,12.97
2022-10-16T03:30:15.244Z,12.83
2022-10-16T03:32:42.913Z,12.77
2022-10-16T03:35:12.152Z,12.76
2022-10-16T03:37:40.007Z,12.74
2022-10-16T03:40:08.746Z,12.73
2022-10-16T03:42:36.448Z,12.65
2022-10-16T03:45:04.121Z,12.62
2022-10-16T03:47:33.910Z,12.58
2022-10-16T03:50:02.045Z,12.59
2022-10-16T03:52:31.422Z,12.61
2022-10-16T03:54:59.063Z,12.60
2022-10-16T03:57:27.588Z,12.65
2022-10-16T03:59:55.561Z,12.63
2022-10-16T04:02:23.217Z,12.64
2022-10-16T04:04:51.027Z,12.62
2022-10-16T04:07:18.708Z,12.66
2022-10-16T04:09:47.754Z,12.70
2022-10-16T04:12:15.470Z,12.74
2022-10-16T04:14:45.132Z,12.65
2022-10-16T04:17:12.826Z,12.73
2022-10-16T04:19:40.516Z,12.77
2022-10-16T04:22:08.214Z,12.84
2022-10-16T04:24:35.934Z,12.86
2022-10-16T04:27:05.321Z,12.86
2022-10-16T04:29:33.168Z,12.87
2022-10-16T04:32:00.848Z,12.85
2022-10-16T04:34:28.767Z,12.93
2022-10-16T04:36:56.566Z,12.96
2022-10-16T04:39:24.245Z,12.95
2022-10-16T04:41:51.985Z,12.89
2022-10-16T04:44:21.067Z,12.85
2022-10-16T04:46:48.751Z,12.95
2022-10-16T04:49:16.474Z,12.93
2022-10-16T04:51:44.199Z,12.92
2022-10-16T04:54:12.186Z,12.80
2022-10-16T04:56:47.506Z,12.84
2022-10-16T04:59:15.787Z,12.73
2022-10-16T05:01:45.024Z,12.78
2022-10-16T05:04:12.904Z,12.80
2022-10-16T05:06:40.999Z,12.71
2022-10-16T05:09:09.169Z,12.71
2022-10-16T05:11:37.116Z,12.63
2022-10-16T05:14:05.056Z,12.64
2022-10-16T05:16:32.903Z,12.66
2022-10-16T05:19:26.219Z,12.69
2022-10-16T05:21:49.696Z,12.59
2022-10-16T05:24:17.387Z,12.57
2022-10-16T05:26:45.242Z,12.69
2022-10-16T05:29:13.048Z,12.74
2022-10-16T05:31:40.796Z,12.79
2022-10-16T05:34:09.900Z,12.74
2022-10-16T05:36:37.739Z,12.69
2022-10-16T05:39:05.705Z,12.73
2022-10-16T05:41:33.428Z,12.78
2022-10-16T05:44:01.272Z,12.67
2022-10-16T05:46:28.973Z,12.78
2022-10-16T05:48:56.727Z,12.81
2022-10-16T05:51:25.883Z,12.82
2022-10-16T05:53:54.673Z,12.61
2022-10-16T05:56:22.474Z,12.81
2022-10-16T05:58:50.266Z,12.77
2022-10-16T06:01:19.954Z,12.66
2022-10-16T06:03:47.763Z,12.80
2022-10-16T06:06:17.337Z,12.85
2022-10-16T06:08:47.388Z,12.86
2022-10-16T06:11:18.616Z,12.98
2022-10-16T06:13:46.944Z,13.03
2022-10-16T06:16:15.196Z,13.06
2022-10-16T06:18:42.944Z,12.98
2022-10-16T06:21:11.955Z,13.06
2022-10-16T06:23:40.105Z,13.01
2022-10-16T06:26:10.613Z,13.09
2022-10-16T06:28:39.231Z,13.21
2022-10-16T06:31:08.872Z,13.13
2022-10-16T06:33:37.001Z,13.10
2022-10-16T06:36:05.293Z,13.17
2022-10-16T06:38:33.312Z,13.16
2022-10-16T06:41:01.395Z,13.20
2022-10-16T06:43:33.006Z,13.25
2022-10-16T06:46:02.233Z,13.22
2022-10-16T06:48:30.921Z,13.32
2022-10-16T06:51:00.414Z,13.47
2022-10-16T06:53:39.597Z,13.57
2022-10-16T06:56:13.446Z,13.51
2022-10-16T06:58:43.712Z,13.64
2022-10-16T07:01:12.429Z,13.95
2022-10-16T07:03:41.432Z,14.11
2022-10-16T07:06:11.082Z,14.29
2022-10-16T07:08:40.501Z,14.31
2022-10-16T07:11:10.832Z,14.36
2022-10-16T07:13:39.893Z,14.32
2022-10-16T07:16:11.032Z,14.28
2022-10-16T07:18:39.999Z,14.34
2022-10-16T07:21:08.535Z,14.32
2022-10-16T07:23:36.586Z,14.33
2022-10-16T07:26:18.870Z,14.09
2022-10-16T07:28:46.802Z,14.01
2022-10-16T07:31:17.894Z,14.12
2022-10-16T07:33:49.060Z,13.91
2022-10-16T07:36:18.675Z,13.73
2022-10-16T07:38:48.681Z,13.59
2022-10-16T07:41:20.033Z,13.73
2022-10-16T07:43:49.403Z,14.71
2022-10-16T07:46:19.151Z,15.34
2022-10-16T07:48:48.918Z,15.91
2022-10-16T07:51:20.562Z,16.65
2022-10-16T07:53:48.935Z,17.35
2022-10-16T07:56:18.415Z,17.44
2022-10-16T07:58:46.684Z,16.99
2022-10-16T08:01:16.910Z,17.77
2022-10-16T08:03:48.860Z,17.38
2022-10-16T08:06:16.972Z,18.64
2022-10-16T08:08:44.970Z,19.16
2022-10-16T08:11:13.076Z,19.12
2022-10-16T08:13:40.809Z,19.44
2022-10-16T08:16:10.798Z,19.10
2022-10-16T08:18:39.658Z,19.01
2022-10-16T08:21:18.590Z,19.25
2022-10-16T08:23:54.518Z,19.54
2022-10-16T08:26:25.206Z,19.49
2022-10-16T08:28:53.463Z,19.81
2022-10-16T08:31:21.455Z,20.55
2022-10-16T08:33:49.307Z,19.74
2022-10-16T08:36:18.763Z,19.55
2022-10-16T08:38:50.626Z,20.02
2022-10-16T08:41:59.178Z,19.75
2022-10-16T08:44:39.456Z,19.64
2022-10-16T08:47:14.988Z,19.77
2022-10-16T08:49:45.088Z,19.22
2022-10-16T08:52:16.102Z,19.15
2022-10-16T08:54:47.968Z,18.48
2022-10-16T08:57:19.837Z,19.32
2022-10-16T08:59:51.027Z,19.21
2022-10-16T09:02:29.318Z,19.34
2022-10-16T09:05:17.827Z,19.12
2022-10-16T09:07:53.243Z,19.20
2022-10-16T09:10:34.407Z,18.85
2022-10-16T09:13:16.647Z,19.40
2022-10-16T09:15:57.806Z,18.80
2022-10-16T09:18:32.623Z,18.51
2022-10-16T09:21:07.954Z,18.64
2022-10-16T09:23:39.328Z,18.46
2022-10-16T09:26:12.147Z,18.24
2022-10-16T09:28:40.161Z,18.20
2022-10-16T09:31:11.080Z,18.28
2022-10-16T09:33:41.286Z,18.40
2022-10-16T09:36:10.266Z,18.27
2022-10-16T09:38:40.513Z,18.40
2022-10-16T09:41:18.400Z,18.46
2022-10-16T09:43:51.973Z,18.69
2022-10-16T09:46:27.485Z,18.82
2022-10-16T09:48:58.082Z,18.75
2022-10-16T09:51:27.778Z,18.83
2022-10-16T09:54:00.506Z,19.01
2022-10-16T09:56:30.639Z,19.02
2022-10-16T09:58:59.835Z,19.18
2022-10-16T10:01:33.992Z,19.33
2022-10-16T10:04:04.503Z,19.39
2022-10-16T10:06:35.182Z,19.36
2022-10-16T10:09:07.972Z,19.48
2022-10-16T10:11:51.400Z,19.62
2022-10-16T10:14:22.712Z,19.79
2022-10-16T10:16:53.208Z,19.79
2022-10-16T10:19:22.568Z,20.02
2022-10-16T10:21:51.409Z,20.25
2022-10-16T10:24:21.627Z,20.67
2022-10-16T10:26:58.019Z,21.56
2022-10-16T10:29:43.966Z,22.02
2022-10-16T10:32:25.435Z,22.88
2022-10-16T10:35:05.057Z,23.63
2022-10-16T10:37:48.453Z,24.02
2022-10-16T10:40:31.443Z,24.53
2022-10-16T10:43:04.589Z,24.67
2022-10-16T10:45:43.569Z,25.03
2022-10-16T10:51:03.427Z,24.87
2022-10-16T10:53:38.697Z,24.84
2022-10-16T10:56:23.928Z,25.11
2022-10-16T10:59:10.916Z,26.16
2022-10-16T11:01:47.452Z,25.80
2022-10-16T11:04:40.961Z,26.71
2022-10-16T11:07:16.035Z,26.84
2022-10-16T11:09:48.839Z,25.30
2022-10-16T11:12:21.945Z,25.90
2022-10-16T11:14:58.275Z,26.42
2022-10-16T11:17:32.587Z,26.99
2022-10-16T11:20:07.245Z,27.45
2022-10-16T11:22:39.895Z,26.06
2022-10-16T11:25:15.580Z,25.30
2022-10-16T11:27:49.633Z,24.87
2022-10-16T11:30:22.188Z,25.21
2022-10-16T11:33:05.368Z,24.93
2022-10-16T11:35:42.003Z,25.36
2022-10-16T11:38:16.869Z,25.33
2022-10-16T11:40:48.623Z,24.91
2022-10-16T11:43:24.045Z,25.42
2022-10-16T11:45:55.187Z,25.80
2022-10-16T11:48:30.396Z,25.18
2022-10-16T11:51:04.564Z,24.14
2022-10-16T11:53:46.342Z,23.00
2022-10-16T11:56:14.723Z,24.04
2022-10-16T11:58:54.884Z,25.86
2022-10-16T12:01:29.860Z,28.63
2022-10-16T12:04:08.237Z,30.86
2022-10-16T12:06:42.682Z,30.55
2022-10-16T12:09:22.656Z,33.34
2022-10-16T12:11:50.452Z,33.66
2022-10-16T12:14:42.887Z,33.99
2022-10-16T12:17:29.246Z,34.19
2022-10-16T12:20:01.865Z,34.20
2022-10-16T12:22:32.131Z,32.01
2022-10-16T12:25:00.592Z,30.55
2022-10-16T12:27:31.738Z,30.29
2022-10-16T12:30:02.660Z,29.06
2022-10-16T12:32:49.181Z,28.65
2022-10-16T12:35:22.931Z,28.69
2022-10-16T12:37:51.948Z,27.91
2022-10-16T12:40:30.051Z,26.83
2022-10-16T12:42:57.833Z,26.76
2022-10-16T12:45:30.087Z,26.11
2022-10-16T12:47:58.561Z,24.27
2022-10-16T12:50:33.637Z,23.53
2022-10-16T12:53:02.895Z,22.96
2022-10-16T12:55:44.406Z,22.15
2022-10-16T12:58:26.537Z,21.66
2022-10-16T13:00:59.324Z,21.56
2022-10-16T13:03:50.289Z,21.38
2022-10-16T13:06:30.588Z,21.24
2022-10-16T13:09:22.407Z,20.95
2022-10-16T13:12:02.469Z,20.80
2022-10-16T13:14:50.165Z,20.56
2022-10-16T13:17:27.162Z,20.46
2022-10-16T13:20:04.381Z,20.51
2022-10-16T13:22:39.794Z,20.55
2022-10-16T13:25:22.073Z,20.51
2022-10-16T13:27:56.215Z,20.40
2022-10-16T13:30:30.805Z,20.50
2022-10-16T13:33:04.373Z,20.50
2022-10-16T13:35:34.311Z,20.62
2022-10-16T13:38:07.328Z,21.01
2022-10-16T13:40:35.834Z,20.82
2022-10-16T13:43:03.924Z,20.65
2022-10-16T13:45:31.587Z,20.66
2022-10-16T13:48:13.176Z,20.72
2022-10-16T13:50:40.906Z,20.71
2022-10-16T13:53:09.212Z,20.65
2022-10-16T13:55:36.924Z,20.39
2022-10-16T13:58:10.737Z,20.26
2022-10-16T14:03:17.201Z,20.40
2022-10-16T14:05:49.939Z,20.76
2022-10-16T14:08:18.185Z,20.82
2022-10-16T14:10:51.576Z,20.93
2022-10-16T14:13:23.909Z,20.86
2022-10-16T14:15:55.173Z,20.40
2022-10-16T14:18:29.861Z,20.26
2022-10-16T14:21:06.624Z,20.14
2022-10-16T14:23:38.402Z,20.16
2022-10-16T14:26:18.447Z,19.88
2022-10-16T14:28:47.777Z,19.91
2022-10-16T14:31:30.363Z,19.94
2022-10-16T14:34:00.106Z,19.66
2022-10-16T14:36:29.270Z,19.72
2022-10-16T14:39:02.520Z,19.79
2022-10-16T14:41:31.571Z,19.82
2022-10-16T14:44:04.865Z,19.81
2022-10-16T14:46:36.668Z,19.79
2022-10-16T14:49:20.803Z,19.61
2022-10-16T14:51:49.257Z,19.66
2022-10-16T14:54:18.459Z,19.70
2022-10-16T14:56:49.768Z,19.69
2022-10-16T14:59:22.066Z,19.88
2022-10-16T15:01:49.998Z,19.87
2022-10-16T15:04:19.603Z,19.74
2022-10-16T15:06:47.361Z,19.76
2022-10-16T15:09:15.189Z,19.84
2022-10-16T15:11:43.972Z,20.11
2022-10-16T15:16:42.796Z,20.31
2022-10-16T15:19:10.482Z,20.47
2022-10-16T15:21:39.535Z,20.21
2022-10-16T15:24:16.487Z,20.30
2022-10-16T15:26:47.891Z,20.33
2022-10-16T15:29:15.570Z,20.03
2022-10-16T15:31:43.573Z,19.84
2022-10-16T15:34:14.008Z,19.77
2022-10-16T15:36:43.242Z,19.62
2022-10-16T15:39:15.612Z,19.51
2022-10-16T15:41:43.951Z,19.22
2022-10-16T15:44:11.758Z,19.12
2022-10-16T15:46:39.481Z,18.80
2022-10-16T15:49:07.882Z,18.66
2022-10-16T15:51:35.548Z,18.55
2022-10-16T15:54:04.751Z,18.54
2022-10-16T15:56:34.316Z,18.43
2022-10-16T15:59:02.928Z,18.42
2022-10-16T16:01:33.871Z,18.32
2022-10-16T16:04:02.974Z,18.28
2022-10-16T16:06:35.306Z,18.20
2022-10-16T16:09:04.518Z,18.12
2022-10-16T16:11:34.479Z,18.02
2022-10-16T16:14:02.142Z,17.92
2022-10-16T16:16:29.870Z,17.88
2022-10-16T16:18:58.852Z,17.81
2022-10-16T16:21:26.534Z,17.76
2022-10-16T16:23:54.329Z,17.74
2022-10-16T16:26:27.638Z,17.77
2022-10-16T16:28:57.548Z,17.70
2022-10-16T16:31:27.138Z,17.65
2022-10-16T16:33:55.405Z,17.63
2022-10-16T16:38:51.735Z,17.49
2022-10-16T16:41:20.665Z,17.44
2022-10-16T16:43:52.010Z,17.44
2022-10-16T16:46:20.551Z,17.32
2022-10-16T16:48:50.911Z,17.39
2022-10-16T16:51:20.761Z,17.32
2022-10-16T16:53:50.835Z,17.23
2022-10-16T16:56:19.535Z,17.18
2022-10-16T16:58:47.716Z,17.16
2022-10-16T17:01:21.360Z,17.09
2022-10-16T17:03:51.618Z,17.06
2022-10-16T17:06:20.992Z,17.07
2022-10-16T17:08:49.866Z,17.07
2022-10-16T17:11:19.618Z,16.88
2022-10-16T17:13:49.946Z,16.78
2022-10-16T17:16:22.457Z,16.70
2022-10-16T17:18:50.296Z,16.60
2022-10-16T17:21:17.993Z,16.52
2022-10-16T17:23:45.824Z,16.46
2022-10-16T17:26:15.191Z,16.40
2022-10-16T17:28:43.233Z,16.26
2022-10-16T17:31:13.248Z,16.18
2022-10-16T17:33:42.871Z,16.11
2022-10-16T17:36:11.803Z,16.01
2022-10-16T17:38:39.549Z,15.95
2022-10-16T17:41:15.044Z,15.91
2022-10-16T17:43:43.349Z,15.89
2022-10-16T17:46:12.049Z,15.85
2022-10-16T17:48:40.047Z,15.89
2022-10-16T17:51:10.991Z,15.87
2022-10-16T17:53:39.779Z,15.86
2022-10-16T17:56:09.504Z,15.85
2022-10-16T17:58:37.625Z,15.94
2022-10-16T18:01:13.602Z,15.86
2022-10-16T18:03:41.369Z,15.84
2022-10-16T18:06:12.715Z,15.76
2022-10-16T18:08:40.410Z,15.72
2022-10-16T18:11:08.142Z,15.69
2022-10-16T18:13:35.830Z,15.65
2022-10-16T18:16:04.685Z,15.60
2022-10-16T18:18:32.403Z,15.62
2022-10-16T18:21:01.792Z,15.54
2022-10-16T18:23:31.510Z,15.53
2022-10-16T18:25:59.221Z,15.52
2022-10-16T18:28:27.100Z,15.48
2022-10-16T18:30:57.873Z,15.49
2022-10-16T18:33:25.725Z,15.51
2022-10-16T18:35:54.384Z,15.48
2022-10-16T18:38:22.125Z,15.38
2022-10-16T18:40:51.225Z,15.29
2022-10-16T18:43:18.902Z,15.22
2022-10-16T18:45:56.561Z,15.08
2022-10-16T18:48:24.526Z,15.23
2022-10-16T18:50:52.571Z,15.21
2022-10-16T18:53:21.091Z,15.19
2022-10-16T18:56:00.268Z,15.17
2022-10-16T18:58:27.967Z,15.17
2022-10-16T19:00:55.670Z,15.10
2022-10-16T19:03:23.516Z,14.90
2022-10-16T19:05:51.215Z,14.96
2022-10-16T19:08:18.902Z,14.89
2022-10-16T19:10:46.566Z,14.90
2022-10-16T19:13:15.635Z,14.90
2022-10-16T19:15:49.811Z,14.84
2022-10-16T19:18:27.094Z,14.79
2022-10-16T19:20:55.139Z,14.82
2022-10-16T19:23:23.223Z,14.79
2022-10-16T19:25:50.931Z,14.75
2022-10-16T19:28:20.104Z,14.73
2022-10-16T19:30:48.515Z,14.65
2022-10-16T19:33:16.172Z,14.66
2022-10-16T19:35:43.904Z,14.70
2022-10-16T19:38:11.594Z,14.70
2022-10-16T19:40:39.312Z,14.67
2022-10-16T19:43:07.032Z,14.44
2022-10-16T19:45:36.661Z,14.58
2022-10-16T19:48:04.771Z,14.57
2022-10-16T19:50:32.656Z,14.45
2022-10-16T19:53:00.347Z,14.49
2022-10-16T19:55:28.027Z,14.41
2022-10-16T19:57:55.744Z,14.38
2022-10-16T20:00:23.429Z,14.24
2022-10-16T20:02:52.507Z,14.32
2022-10-16T20:05:20.361Z,14.29
2022-10-16T20:07:48.159Z,14.34
2022-10-16T20:10:15.975Z,14.24
2022-10-16T20:12:43.902Z,14.29
2022-10-16T20:15:12.214Z,14.17
2022-10-16T20:17:39.880Z,14.18
2022-10-16T20:20:09.898Z,14.26
2022-10-16T20:22:40.313Z,14.23
2022-10-16T20:25:10.136Z,14.20
2022-10-16T20:27:38.090Z,14.22
2022-10-16T20:30:06.541Z,14.26
2022-10-16T20:32:34.415Z,14.20
2022-10-16T20:35:04.443Z,14.26
2022-10-16T20:37:38.563Z,14.13
2022-10-16T20:40:07.513Z,14.20
2022-10-16T20:42:35.150Z,14.21
2022-10-16T20:45:02.998Z,14.19
2022-10-16T20:47:30.673Z,14.09
2022-10-16T20:49:58.416Z,14.10
2022-10-16T20:52:26.192Z,14.08
2022-10-16T20:54:55.394Z,14.09
2022-10-16T20:57:23.144Z,14.09
2022-10-16T20:59:54.946Z,14.02
2022-10-16T21:04:55.662Z,14.07
2022-10-16T21:07:23.391Z,14.10
2022-10-16T21:09:51.329Z,14.13
2022-10-16T21:12:20.518Z,14.10
2022-10-16T21:15:09.845Z,14.17
2022-10-16T21:17:35.896Z,14.14
2022-10-16T21:20:03.879Z,14.12
2022-10-16T21:22:32.325Z,14.13
2022-10-16T21:25:00.036Z,14.19
2022-10-16T21:27:29.066Z,14.20
2022-10-16T21:29:56.750Z,14.18
2022-10-16T21:32:24.826Z,14.15
2022-10-16T21:34:52.773Z,14.13
2022-10-16T21:37:20.433Z,14.17
2022-10-16T21:39:48.174Z,14.23
2022-10-16T21:42:15.868Z,14.26
2022-10-16T21:44:44.892Z,14.23
2022-10-16T21:47:12.648Z,14.11
2022-10-16T21:49:40.439Z,14.12
2022-10-16T21:52:08.143Z,13.99
2022-10-16T21:54:35.861Z,13.93
2022-10-16T21:59:32.366Z,13.87
2022-10-16T22:02:03.090Z,13.88
2022-10-16T22:04:30.878Z,13.89
2022-10-16T22:06:58.577Z,13.88
2022-10-16T22:09:26.330Z,13.91
2022-10-16T22:11:54.013Z,13.95
2022-10-16T22:14:22.528Z,13.98
2022-10-16T22:16:51.330Z,14.00
2022-10-16T22:19:22.156Z,13.99
2022-10-16T22:21:51.767Z,13.83
2022-10-16T22:24:20.005Z,13.89
2022-10-16T22:26:48.561Z,13.97
2022-10-16T22:29:17.266Z,13.96
2022-10-16T22:31:45.320Z,13.84
2022-10-16T22:34:14.639Z,13.97
2022-10-16T22:36:43.922Z,13.87
2022-10-16T22:39:11.722Z,13.67
2022-10-16T22:41:39.488Z,13.68
2022-10-16T22:44:07.250Z,13.58
2022-10-16T22:46:34.888Z,13.58
2022-10-16T22:49:02.580Z,13.54
2022-10-16T22:51:30.748Z,13.47
2022-10-16T22:54:00.152Z,13.49
2022-10-16T22:56:28.030Z,13.42
2022-10-16T22:58:55.727Z,13.45
2022-10-16T23:01:26.895Z,13.43
2022-10-16T23:03:54.658Z,13.38
2022-10-16T23:06:22.538Z,13.38
2022-10-16T23:08:52.912Z,13.44
2022-10-16T23:11:22.905Z,13.43
2022-10-16T23:13:50.769Z,13.28
2022-10-16T23:16:21.180Z,13.27
2022-10-16T23:18:49.561Z,13.18
2022-10-16T23:21:19.292Z,13.22
2022-10-16T23:23:47.060Z,13.26
2022-10-16T23:26:18.650Z,13.74
2022-10-16T23:28:48.040Z,13.52
2022-10-16T23:31:16.733Z,13.27
2022-10-16T23:33:45.245Z,13.13
2022-10-16T23:36:15.236Z,13.38
2022-10-16T23:38:43.290Z,13.06
2022-10-16T23:41:12.041Z,12.96
2022-10-16T23:43:40.139Z,12.90
2022-10-16T23:46:10.628Z,12.91
2022-10-16T23:48:39.241Z,12.82
2022-10-16T23:51:07.576Z,12.81
2022-10-16T23:53:35.247Z,12.79
2022-10-16T23:56:03.013Z,12.79
2022-10-16T23:58:30.679Z,13.09
